Time;durP1;ratioP1;P1;durP2;ratioP2;P2;SDS_P1;SDS_P2;PMS_P1;PMS_P2;Temp;Humidity;BMP_temperature;BMP_pressure;BME280_temperature;BME280_humidity;BME280_pressure;Samples;Min_cycle;Max_cycle;Signal;HPM_P1;HPM_P2
2023/11/05 00:02:17;;;;;;;5.30;3.87;;;;;;;;;;775997;178;912789;-66
2023/11/05 00:04:43;;;;;;;6.60;3.63;;;;;;;;;;779776;178;921110;-68
2023/11/05 00:07:09;;;;;;;6.60;3.27;;;;;;;;;;774374;179;876190;-69
2023/11/05 00:09:34;;;;;;;4.70;2.93;;;;;;;;;;780522;179;917118;-67
2023/11/05 00:12:00;;;;;;;4.70;2.97;;;;;;;;;;775972;179;916442;-67
2023/11/05 00:14:26;;;;;;;9.37;3.00;;;;;;;;;;772138;179;917085;-68
2023/11/05 00:16:52;;;;;;;3.97;2.63;;;;;;;;;;778205;179;813654;-67
2023/11/05 00:19:18;;;;;;;5.37;3.20;;;;;;;;;;775580;179;917395;-68
2023/11/05 00:21:44;;;;;;;6.00;3.60;;;;;;;;;;777192;179;910663;-68
2023/11/05 00:24:09;;;;;;;6.10;2.87;;;;;;;;;;779769;179;877228;-69
2023/11/05 00:26:35;;;;;;;5.10;3.10;;;;;;;;;;777207;179;935915;-65
2023/11/05 00:29:01;;;;;;;6.70;3.20;;;;;;;;;;777945;178;918455;-67
2023/11/05 00:31:27;;;;;;;4.47;3.50;;;;;;;;;;776446;179;919460;-67
2023/11/05 00:33:53;;;;;;;7.63;3.70;;;;;;;;;;771210;181;911488;-67
2023/11/05 00:36:19;;;;;;;6.07;4.03;;;;;;;;;;775182;178;911887;-67
2023/11/05 00:38:45;;;;;;;5.33;3.00;;;;;;;;;;781744;179;812545;-67
2023/11/05 00:41:10;;;;;;;5.67;2.90;;;;;;;;;;783419;179;921173;-67
2023/11/05 00:43:36;;;;;;;5.70;3.10;;;;;;;;;;775952;179;916003;-68
2023/11/05 00:46:02;;;;;;;7.30;3.23;;;;;;;;;;771848;179;914976;-67
2023/11/05 00:48:28;;;;;;;6.63;2.73;;;;;;;;;;785218;179;916644;-67
2023/11/05 00:50:54;;;;;;;10.13;4.10;;;;;;;;;;772845;179;824331;-67
2023/11/05 00:53:20;;;;;;;4.57;3.00;;;;;;;;;;780434;179;916561;-66
2023/11/05 00:55:46;;;;;;;4.00;2.62;;;;;;;;;;782357;179;813230;-67
2023/11/05 00:58:12;;;;;;;6.77;3.40;;;;;;;;;;771601;178;819135;-68
2023/11/05 01:00:37;;;;;;;4.77;2.60;;;;;;;;;;773325;178;912657;-66
2023/11/05 01:03:03;;;;;;;4.40;2.93;;;;;;;;;;774487;178;939120;-68
2023/11/05 01:05:29;;;;;;;4.33;2.80;;;;;;;;;;783161;178;924289;-67
2023/11/05 01:07:55;;;;;;;5.93;2.70;;;;;;;;;;778807;178;923930;-68
2023/11/05 01:10:21;;;;;;;4.03;2.70;;;;;;;;;;773596;178;922313;-68
2023/11/05 01:12:47;;;;;;;6.00;2.70;;;;;;;;;;780212;178;916393;-67
2023/11/05 01:15:12;;;;;;;6.20;3.23;;;;;;;;;;781056;178;918057;-66
2023/11/05 01:17:38;;;;;;;6.33;3.03;;;;;;;;;;772435;178;915906;-66
2023/11/05 01:20:07;;;;;;;4.70;2.67;;;;;;;;;;783094;179;816579;-68
2023/11/05 01:22:30;;;;;;;3.67;2.87;;;;;;;;;;775272;179;919419;-67
2023/11/05 01:24:56;;;;;;;6.03;2.50;;;;;;;;;;781714;179;918528;-66
2023/11/05 01:27:22;;;;;;;6.00;2.90;;;;;;;;;;775971;178;918951;-68
2023/11/05 01:29:49;;;;;;;4.00;3.33;;;;;;;;;;779980;179;814758;-68
2023/11/05 01:32:14;;;;;;;5.20;3.17;;;;;;;;;;777744;177;918356;-67
2023/11/05 01:34:40;;;;;;;5.43;2.67;;;;;;;;;;779124;179;919920;-68
2023/11/05 01:37:06;;;;;;;5.97;2.60;;;;;;;;;;783472;177;919661;-67
2023/11/05 01:39:31;;;;;;;4.97;2.70;;;;;;;;;;769855;179;918802;-68
2023/11/05 01:41:57;;;;;;;6.30;2.77;;;;;;;;;;778763;179;918862;-69
2023/11/05 01:44:23;;;;;;;6.40;3.90;;;;;;;;;;778544;179;926826;-67
2023/11/05 01:46:49;;;;;;;7.63;2.90;;;;;;;;;;775540;177;920203;-67
2023/11/05 01:49:15;;;;;;;4.30;3.00;;;;;;;;;;778958;179;920218;-67
2023/11/05 01:51:41;;;;;;;4.27;2.53;;;;;;;;;;779097;179;918776;-67
2023/11/05 01:54:08;;;;;;;3.93;2.20;;;;;;;;;;775095;180;886604;-67
2023/11/05 01:56:32;;;;;;;4.20;2.53;;;;;;;;;;772486;178;919254;-67
2023/11/05 01:58:58;;;;;;;3.43;2.47;;;;;;;;;;779272;179;816308;-67
2023/11/05 02:01:25;;;;;;;3.87;2.50;;;;;;;;;;775482;179;920550;-66
2023/11/05 02:03:50;;;;;;;4.53;2.40;;;;;;;;;;773924;179;919756;-66
2023/11/05 02:06:16;;;;;;;6.70;2.57;;;;;;;;;;781336;178;918162;-67
2023/11/05 02:08:42;;;;;;;5.83;3.00;;;;;;;;;;786175;176;916785;-66
2023/11/05 02:11:08;;;;;;;4.73;2.60;;;;;;;;;;778194;176;917844;-66
2023/11/05 02:13:39;;;;;;;4.40;2.87;;;;;;;;;;776348;178;918630;-67
2023/11/05 02:16:06;;;;;;;5.57;3.17;;;;;;;;;;769819;178;918883;-66
2023/11/05 02:18:32;;;;;;;6.70;3.93;;;;;;;;;;785873;177;920358;-67
2023/11/05 02:20:57;;;;;;;5.90;3.53;;;;;;;;;;776750;178;920524;-66
2023/11/05 02:23:24;;;;;;;6.27;3.33;;;;;;;;;;780980;178;919080;-66
2023/11/05 02:25:49;;;;;;;5.10;3.00;;;;;;;;;;781965;178;920709;-66
2023/11/05 02:28:15;;;;;;;5.10;3.27;;;;;;;;;;779669;178;815930;-65
2023/11/05 02:30:41;;;;;;;5.30;3.73;;;;;;;;;;774168;179;920182;-64
2023/11/05 02:33:07;;;;;;;5.20;3.67;;;;;;;;;;779730;179;917906;-66
2023/11/05 02:35:32;;;;;;;7.03;3.00;;;;;;;;;;775837;179;919056;-66
2023/11/05 02:37:58;;;;;;;6.10;3.30;;;;;;;;;;781417;179;813309;-67
2023/11/05 02:40:24;;;;;;;7.40;3.37;;;;;;;;;;778024;178;920611;-65
2023/11/05 02:42:50;;;;;;;5.53;3.03;;;;;;;;;;776834;179;917106;-65
2023/11/05 02:45:16;;;;;;;5.63;2.87;;;;;;;;;;779711;178;917048;-66
2023/11/05 02:47:42;;;;;;;3.30;2.17;;;;;;;;;;775311;180;919689;-65
2023/11/05 02:50:08;;;;;;;5.47;3.00;;;;;;;;;;780038;179;916865;-66
2023/11/05 02:52:34;;;;;;;6.70;2.43;;;;;;;;;;774239;179;918613;-64
2023/11/05 02:55:00;;;;;;;6.03;2.70;;;;;;;;;;778133;179;918535;-66
2023/11/05 02:57:25;;;;;;;3.80;2.47;;;;;;;;;;779991;179;918819;-66
2023/11/05 02:59:51;;;;;;;4.30;2.40;;;;;;;;;;773175;179;918619;-65
2023/11/05 03:02:17;;;;;;;6.00;2.80;;;;;;;;;;776741;178;917745;-67
2023/11/05 03:04:43;;;;;;;3.83;2.53;;;;;;;;;;777312;179;921433;-66
2023/11/05 03:07:09;;;;;;;4.03;2.13;;;;;;;;;;774351;180;848163;-66
2023/11/05 03:09:35;;;;;;;5.20;2.97;;;;;;;;;;772140;179;919134;-65
2023/11/05 03:12:01;;;;;;;4.00;2.60;;;;;;;;;;771110;177;1013953;-66
2023/11/05 03:14:26;;;;;;;4.90;2.40;;;;;;;;;;777258;179;909719;-66
2023/11/05 03:16:52;;;;;;;4.33;2.43;;;;;;;;;;773707;179;897805;-66
2023/11/05 03:19:18;;;;;;;5.22;3.10;;;;;;;;;;772952;179;919014;-68
2023/11/05 03:21:44;;;;;;;3.77;2.63;;;;;;;;;;781224;179;912595;-66
2023/11/05 03:24:10;;;;;;;4.27;2.73;;;;;;;;;;776360;178;917216;-66
2023/11/05 03:26:36;;;;;;;3.60;2.30;;;;;;;;;;775019;178;918830;-67
2023/11/05 03:29:03;;;;;;;3.60;2.47;;;;;;;;;;782900;178;919086;-66
2023/11/05 03:31:27;;;;;;;9.13;3.40;;;;;;;;;;781395;178;897778;-65
2023/11/05 03:33:53;;;;;;;9.10;3.67;;;;;;;;;;771929;178;2146311;-67
2023/11/05 03:36:19;;;;;;;6.07;3.50;;;;;;;;;;774882;178;918596;-67
2023/11/05 03:38:45;;;;;;;4.60;2.70;;;;;;;;;;773615;178;920737;-67
2023/11/05 03:41:11;;;;;;;5.07;2.30;;;;;;;;;;776221;179;922632;-66
2023/11/05 03:43:36;;;;;;;7.43;3.07;;;;;;;;;;775886;177;1020283;-68
2023/11/05 03:46:02;;;;;;;3.70;2.80;;;;;;;;;;780634;179;925862;-68
2023/11/05 03:48:28;;;;;;;4.90;2.47;;;;;;;;;;778529;179;918838;-66
2023/11/05 03:50:54;;;;;;;8.97;5.50;;;;;;;;;;778927;179;919625;-67
2023/11/05 03:53:20;;;;;;;6.53;2.80;;;;;;;;;;779399;179;921766;-66
2023/11/05 03:55:46;;;;;;;3.97;2.90;;;;;;;;;;775854;179;919872;-66
2023/11/05 03:58:12;;;;;;;5.07;2.97;;;;;;;;;;778949;179;919577;-66
2023/11/05 04:00:37;;;;;;;4.50;2.97;;;;;;;;;;777635;179;824322;-67
2023/11/05 04:03:03;;;;;;;4.67;2.97;;;;;;;;;;776249;180;849617;-66
2023/11/05 04:05:29;;;;;;;3.50;2.60;;;;;;;;;;777502;179;918414;-67
2023/11/05 04:07:55;;;;;;;4.77;2.80;;;;;;;;;;774239;177;918584;-66
2023/11/05 04:10:21;;;;;;;4.40;2.30;;;;;;;;;;781070;179;922264;-67
2023/11/05 04:12:47;;;;;;;4.73;2.20;;;;;;;;;;771652;177;884719;-65
2023/11/05 04:15:12;;;;;;;4.60;2.50;;;;;;;;;;778568;179;919474;-65
2023/11/05 04:17:38;;;;;;;4.03;2.00;;;;;;;;;;782969;178;808325;-65
2023/11/05 04:20:05;;;;;;;3.60;2.20;;;;;;;;;;772891;179;918777;-67
2023/11/05 04:22:30;;;;;;;3.83;2.63;;;;;;;;;;775740;179;918198;-68
2023/11/05 04:24:56;;;;;;;3.77;2.33;;;;;;;;;;781021;179;918428;-66
2023/11/05 04:27:22;;;;;;;3.60;2.23;;;;;;;;;;775983;178;918169;-66
2023/11/05 04:29:48;;;;;;;4.50;2.47;;;;;;;;;;777268;179;869645;-66
2023/11/05 04:32:14;;;;;;;5.90;2.70;;;;;;;;;;775807;179;860432;-66
2023/11/05 04:34:40;;;;;;;5.70;2.97;;;;;;;;;;784795;178;919243;-67
2023/11/05 04:37:06;;;;;;;2.83;1.90;;;;;;;;;;778252;177;823129;-67
2023/11/05 04:39:31;;;;;;;4.30;2.42;;;;;;;;;;771119;178;922864;-67
2023/11/05 04:41:57;;;;;;;3.33;2.33;;;;;;;;;;780036;179;921564;-67
2023/11/05 04:44:23;;;;;;;5.30;2.20;;;;;;;;;;773329;179;920465;-68
2023/11/05 04:46:49;;;;;;;3.57;2.23;;;;;;;;;;777107;177;921174;-67
2023/11/05 04:49:15;;;;;;;6.13;2.40;;;;;;;;;;785333;179;920935;-66
2023/11/05 04:51:41;;;;;;;3.33;2.10;;;;;;;;;;773735;178;919260;-66
2023/11/05 04:54:06;;;;;;;3.77;2.10;;;;;;;;;;773898;179;922339;-67
2023/11/05 04:56:32;;;;;;;5.47;2.55;;;;;;;;;;772348;179;895733;-67
2023/11/05 04:58:58;;;;;;;5.00;2.47;;;;;;;;;;771639;180;917894;-68
2023/11/05 05:01:24;;;;;;;4.47;3.00;;;;;;;;;;765481;179;921333;-67
2023/11/05 05:03:51;;;;;;;3.23;2.03;;;;;;;;;;777580;179;931339;-67
2023/11/05 05:06:16;;;;;;;5.03;2.57;;;;;;;;;;779022;179;811238;-66
2023/11/05 05:08:42;;;;;;;3.80;2.30;;;;;;;;;;777745;179;866082;-67
2023/11/05 05:11:09;;;;;;;5.33;2.50;;;;;;;;;;775852;179;916663;-67
2023/11/05 05:13:33;;;;;;;4.50;2.30;;;;;;;;;;778529;179;919122;-66
2023/11/05 05:15:59;;;;;;;6.50;2.20;;;;;;;;;;775600;179;916604;-67
2023/11/05 05:18:25;;;;;;;4.55;1.90;;;;;;;;;;779582;179;920693;-68
2023/11/05 05:20:51;;;;;;;3.50;2.00;;;;;;;;;;780078;179;919396;-66
2023/11/05 05:23:17;;;;;;;12.30;2.57;;;;;;;;;;779129;179;820236;-66
2023/11/05 05:25:43;;;;;;;3.05;1.80;;;;;;;;;;771666;179;916415;-66
2023/11/05 05:28:10;;;;;;;3.40;2.70;;;;;;;;;;776636;177;915204;-67
2023/11/05 05:30:34;;;;;;;3.77;2.23;;;;;;;;;;773465;178;919220;-66
2023/11/05 05:33:00;;;;;;;5.40;2.03;;;;;;;;;;773908;179;816589;-66
2023/11/05 05:35:26;;;;;;;4.50;2.73;;;;;;;;;;778453;178;913778;-66
2023/11/05 05:37:52;;;;;;;6.00;2.27;;;;;;;;;;779046;179;914019;-66
2023/11/05 05:40:18;;;;;;;3.00;1.73;;;;;;;;;;777596;179;929712;-66
2023/11/05 05:42:44;;;;;;;3.80;2.13;;;;;;;;;;771403;179;899870;-65
2023/11/05 05:45:10;;;;;;;10.77;1.90;;;;;;;;;;783413;177;919143;-66
2023/11/05 05:47:36;;;;;;;3.80;1.87;;;;;;;;;;776171;178;920169;-66
2023/11/05 05:50:02;;;;;;;4.12;2.05;;;;;;;;;;780049;178;916652;-66
2023/11/05 05:52:28;;;;;;;2.83;1.62;;;;;;;;;;777715;176;918297;-67
2023/11/05 05:54:54;;;;;;;3.40;1.63;;;;;;;;;;776246;178;887269;-66
2023/11/05 05:57:20;;;;;;;3.20;1.87;;;;;;;;;;780707;178;919521;-67
2023/11/05 05:59:46;;;;;;;4.63;1.87;;;;;;;;;;772432;178;918067;-67
2023/11/05 06:02:11;;;;;;;4.03;1.93;;;;;;;;;;781715;176;918195;-66
2023/11/05 06:04:37;;;;;;;4.43;1.77;;;;;;;;;;777045;179;916313;-66
2023/11/05 06:07:03;;;;;;;2.70;1.40;;;;;;;;;;777785;179;918681;-66
2023/11/05 06:09:29;;;;;;;3.23;1.50;;;;;;;;;;780540;179;917912;-67
2023/11/05 06:11:55;;;;;;;2.20;1.20;;;;;;;;;;782572;177;916641;-66
2023/11/05 06:14:21;;;;;;;2.40;1.23;;;;;;;;;;778212;179;921463;-67
2023/11/05 06:16:46;;;;;;;2.20;1.20;;;;;;;;;;780491;175;915011;-67
2023/11/05 06:19:12;;;;;;;2.57;1.40;;;;;;;;;;775893;179;918207;-67
2023/11/05 06:21:38;;;;;;;4.20;1.67;;;;;;;;;;778817;179;918329;-67
2023/11/05 06:24:04;;;;;;;4.47;1.80;;;;;;;;;;774190;177;918803;-67
2023/11/05 06:26:30;;;;;;;3.20;1.50;;;;;;;;;;784402;179;715799;-68
2023/11/05 06:28:56;;;;;;;2.60;1.40;;;;;;;;;;773672;179;622331;-66
2023/11/05 06:31:22;;;;;;;2.63;1.00;;;;;;;;;;775811;179;850090;-68
2023/11/05 06:33:47;;;;;;;1.90;0.87;;;;;;;;;;782334;179;922929;-65
2023/11/05 06:36:13;;;;;;;3.23;1.13;;;;;;;;;;774550;179;919468;-67
2023/11/05 06:38:40;;;;;;;2.00;1.00;;;;;;;;;;775297;177;923732;-67
2023/11/05 06:41:05;;;;;;;2.30;1.00;;;;;;;;;;777645;179;920734;-66
2023/11/05 06:43:31;;;;;;;2.47;1.00;;;;;;;;;;778637;179;913727;-66
2023/11/05 06:45:57;;;;;;;3.65;0.90;;;;;;;;;;779778;179;918294;-68
2023/11/05 06:48:23;;;;;;;2.27;1.00;;;;;;;;;;774234;177;918968;-66
2023/11/05 06:50:48;;;;;;;3.00;1.07;;;;;;;;;;768788;181;918540;-66
2023/11/05 06:53:14;;;;;;;2.37;1.20;;;;;;;;;;770498;176;920880;-66
2023/11/05 06:55:40;;;;;;;2.20;1.40;;;;;;;;;;778245;179;818486;-66
2023/11/05 06:58:06;;;;;;;2.33;1.00;;;;;;;;;;784185;178;921426;-67
2023/11/05 07:00:32;;;;;;;2.43;1.20;;;;;;;;;;777685;178;918915;-66
2023/11/05 07:02:57;;;;;;;3.60;1.67;;;;;;;;;;771244;178;836132;-65
2023/11/05 07:05:24;;;;;;;2.78;1.08;;;;;;;;;;782994;178;922132;-65
2023/11/05 07:07:50;;;;;;;2.53;1.03;;;;;;;;;;780458;177;923039;-66
2023/11/05 07:10:15;;;;;;;2.00;1.00;;;;;;;;;;775595;179;918216;-66
2023/11/05 07:12:41;;;;;;;2.33;1.07;;;;;;;;;;784210;178;927151;-66
2023/11/05 07:15:07;;;;;;;2.42;1.00;;;;;;;;;;779286;178;909031;-65
2023/11/05 07:17:33;;;;;;;4.87;1.10;;;;;;;;;;777636;179;919951;-66
2023/11/05 07:19:59;;;;;;;5.60;1.40;;;;;;;;;;775114;179;922709;-67
2023/11/05 07:22:25;;;;;;;8.30;1.70;;;;;;;;;;778890;179;817921;-67
2023/11/05 07:24:52;;;;;;;2.40;1.10;;;;;;;;;;775355;179;819957;-66
2023/11/05 07:27:16;;;;;;;3.30;1.17;;;;;;;;;;777311;176;918818;-69
2023/11/05 07:29:44;;;;;;;2.30;0.83;;;;;;;;;;780878;179;919463;-68
2023/11/05 07:32:08;;;;;;;3.07;0.80;;;;;;;;;;774924;179;814938;-67
2023/11/05 07:34:34;;;;;;;2.60;1.00;;;;;;;;;;773919;179;816537;-67
2023/11/05 07:37:00;;;;;;;3.20;1.20;;;;;;;;;;780405;179;918394;-67
2023/11/05 07:39:26;;;;;;;4.93;1.00;;;;;;;;;;778354;179;743917;-68
2023/11/05 07:41:51;;;;;;;2.93;1.30;;;;;;;;;;776910;176;1018204;-68
2023/11/05 07:44:18;;;;;;;2.50;1.20;;;;;;;;;;774394;179;920588;-67
2023/11/05 07:46:43;;;;;;;2.00;1.00;;;;;;;;;;771688;180;818333;-67
2023/11/05 07:49:10;;;;;;;4.97;1.20;;;;;;;;;;775344;179;921648;-67
2023/11/05 07:51:37;;;;;;;6.50;1.62;;;;;;;;;;775374;179;820851;-67
2023/11/05 07:54:02;;;;;;;2.60;1.00;;;;;;;;;;779669;179;626429;-68
2023/11/05 07:56:27;;;;;;;1.98;0.93;;;;;;;;;;778556;179;776075;-69
2023/11/05 07:58:52;;;;;;;2.27;0.93;;;;;;;;;;777684;179;761879;-68
2023/11/05 08:01:18;;;;;;;4.43;1.20;;;;;;;;;;782178;179;815550;-68
2023/11/05 08:03:44;;;;;;;2.13;0.90;;;;;;;;;;777548;175;917020;-67
2023/11/05 08:06:10;;;;;;;2.90;1.40;;;;;;;;;;777720;179;921982;-67
2023/11/05 08:08:36;;;;;;;3.07;1.43;;;;;;;;;;784885;178;917486;-67
2023/11/05 08:11:03;;;;;;;2.97;0.97;;;;;;;;;;778442;178;918626;-69
2023/11/05 08:13:27;;;;;;;2.30;1.30;;;;;;;;;;777313;178;913403;-67
2023/11/05 08:15:53;;;;;;;5.97;1.60;;;;;;;;;;774474;178;972283;-69
2023/11/05 08:18:19;;;;;;;3.67;1.50;;;;;;;;;;778422;178;899626;-68
2023/11/05 08:20:45;;;;;;;2.97;1.50;;;;;;;;;;773528;178;843079;-67
2023/11/05 08:23:13;;;;;;;1.90;0.90;;;;;;;;;;775315;178;921392;-69
2023/11/05 08:25:37;;;;;;;4.67;1.07;;;;;;;;;;783485;178;918149;-67
2023/11/05 08:28:03;;;;;;;2.03;0.93;;;;;;;;;;777690;179;848228;-66
2023/11/05 08:30:28;;;;;;;2.63;0.80;;;;;;;;;;782012;179;619072;-68
2023/11/05 08:32:54;;;;;;;2.27;0.90;;;;;;;;;;785633;177;626243;-67
2023/11/05 08:35:20;;;;;;;1.90;0.73;;;;;;;;;;781207;179;918067;-68
2023/11/05 08:37:46;;;;;;;1.80;0.70;;;;;;;;;;779024;175;669599;-66
2023/11/05 08:40:15;;;;;;;2.10;0.90;;;;;;;;;;781614;179;616605;-67
2023/11/05 08:42:38;;;;;;;2.13;0.80;;;;;;;;;;783866;179;625277;-67
2023/11/05 08:45:06;;;;;;;1.80;0.70;;;;;;;;;;775960;179;917887;-68
2023/11/05 08:47:30;;;;;;;1.87;0.80;;;;;;;;;;780691;179;618050;-68
2023/11/05 08:49:55;;;;;;;1.80;0.70;;;;;;;;;;782658;180;918258;-65
2023/11/05 08:52:21;;;;;;;2.57;0.80;;;;;;;;;;777791;178;919323;-65
2023/11/05 08:54:47;;;;;;;1.90;0.80;;;;;;;;;;774702;179;919610;-68
2023/11/05 08:57:13;;;;;;;1.90;0.90;;;;;;;;;;780579;179;918616;-65
2023/11/05 08:59:39;;;;;;;2.65;0.80;;;;;;;;;;773413;179;921458;-65
2023/11/05 09:02:05;;;;;;;1.80;0.70;;;;;;;;;;773190;178;918778;-67
2023/11/05 09:04:31;;;;;;;2.67;1.20;;;;;;;;;;779332;179;919075;-67
2023/11/05 09:06:57;;;;;;;2.00;0.83;;;;;;;;;;773333;175;843122;-68
2023/11/05 09:09:23;;;;;;;1.80;0.80;;;;;;;;;;775282;178;816657;-65
2023/11/05 09:11:48;;;;;;;2.00;0.70;;;;;;;;;;774639;179;919220;-65
2023/11/05 09:14:14;;;;;;;1.90;0.70;;;;;;;;;;779323;179;915723;-65
2023/11/05 09:16:40;;;;;;;1.80;0.80;;;;;;;;;;775760;179;916722;-68
2023/11/05 09:19:07;;;;;;;1.80;0.70;;;;;;;;;;773899;179;918271;-66
2023/11/05 09:21:32;;;;;;;1.77;0.70;;;;;;;;;;783248;178;887571;-65
2023/11/05 09:24:00;;;;;;;2.07;0.70;;;;;;;;;;773563;178;919548;-68
2023/11/05 09:26:23;;;;;;;1.90;0.70;;;;;;;;;;778153;178;919889;-67
2023/11/05 09:28:49;;;;;;;1.90;0.70;;;;;;;;;;783507;177;817359;-67
2023/11/05 09:31:15;;;;;;;1.90;0.80;;;;;;;;;;775396;178;926069;-66
2023/11/05 09:33:41;;;;;;;1.90;0.90;;;;;;;;;;776081;179;918240;-68
2023/11/05 09:36:07;;;;;;;1.83;0.80;;;;;;;;;;777384;178;918693;-67
2023/11/05 09:38:33;;;;;;;2.37;0.93;;;;;;;;;;775940;179;917212;-64
2023/11/05 09:40:59;;;;;;;2.10;0.80;;;;;;;;;;776033;178;918291;-68
2023/11/05 09:43:25;;;;;;;2.07;0.90;;;;;;;;;;779919;176;917091;-68
2023/11/05 09:45:50;;;;;;;2.10;0.80;;;;;;;;;;782762;179;912559;-67
2023/11/05 09:48:17;;;;;;;1.90;0.80;;;;;;;;;;777669;179;924163;-68
2023/11/05 09:50:42;;;;;;;1.92;0.80;;;;;;;;;;776494;179;1023018;-67
2023/11/05 09:53:10;;;;;;;1.80;0.73;;;;;;;;;;773929;179;818703;-68
2023/11/05 09:55:34;;;;;;;1.80;0.70;;;;;;;;;;779118;179;796175;-68
2023/11/05 09:58:00;;;;;;;2.00;0.80;;;;;;;;;;777513;178;919422;-69
2023/11/05 10:00:26;;;;;;;2.00;0.80;;;;;;;;;;778811;179;916301;-65
2023/11/05 10:02:55;;;;;;;2.33;0.80;;;;;;;;;;775836;179;917427;-65
2023/11/05 10:05:21;;;;;;;2.27;0.90;;;;;;;;;;777875;179;917822;-67
2023/11/05 10:07:48;;;;;;;2.20;1.03;;;;;;;;;;776798;179;918982;-64
2023/11/05 10:10:12;;;;;;;1.93;0.80;;;;;;;;;;779676;179;921057;-67
2023/11/05 10:12:38;;;;;;;1.80;0.80;;;;;;;;;;774832;176;815787;-64
2023/11/05 10:15:04;;;;;;;1.80;0.80;;;;;;;;;;782348;179;816736;-67
2023/11/05 10:17:30;;;;;;;2.30;1.00;;;;;;;;;;782657;179;619417;-66
2023/11/05 10:19:56;;;;;;;2.00;0.80;;;;;;;;;;777980;179;616223;-70
2023/11/05 10:22:22;;;;;;;2.20;0.90;;;;;;;;;;781434;179;621302;-69
2023/11/05 10:24:50;;;;;;;1.90;0.80;;;;;;;;;;782072;179;634951;-66
2023/11/05 10:27:19;;;;;;;2.20;0.90;;;;;;;;;;774307;180;619173;-67
2023/11/05 10:29:45;;;;;;;1.90;0.90;;;;;;;;;;783427;178;625986;-67
2023/11/05 10:32:11;;;;;;;3.30;0.90;;;;;;;;;;783309;175;767646;-67
2023/11/05 10:34:37;;;;;;;1.90;0.70;;;;;;;;;;782737;178;911330;-66
2023/11/05 10:37:05;;;;;;;1.93;0.90;;;;;;;;;;771870;178;920677;-69
2023/11/05 10:39:29;;;;;;;2.30;0.87;;;;;;;;;;776926;178;934637;-67
2023/11/05 10:41:55;;;;;;;2.30;1.00;;;;;;;;;;784521;178;640905;-68
2023/11/05 10:44:21;;;;;;;1.90;0.80;;;;;;;;;;779021;178;696363;-68
2023/11/05 10:46:46;;;;;;;2.87;0.90;;;;;;;;;;778981;178;761064;-67
2023/11/05 10:49:12;;;;;;;1.83;0.80;;;;;;;;;;777626;179;920969;-65
2023/11/05 10:51:38;;;;;;;2.47;0.90;;;;;;;;;;779173;179;817354;-65
2023/11/05 10:54:05;;;;;;;2.00;0.90;;;;;;;;;;774840;179;816584;-64
2023/11/05 10:56:30;;;;;;;2.27;1.37;;;;;;;;;;776168;179;912259;-65
2023/11/05 10:58:56;;;;;;;2.50;1.20;;;;;;;;;;781575;179;619788;-65
2023/11/05 11:01:22;;;;;;;3.27;1.27;;;;;;;;;;776879;178;870724;-68
2023/11/05 11:03:47;;;;;;;6.13;1.77;;;;;;;;;;778224;179;774258;-65
2023/11/05 11:06:13;;;;;;;2.37;1.33;;;;;;;;;;782960;179;646659;-66
2023/11/05 11:08:39;;;;;;;2.70;1.57;;;;;;;;;;779708;179;918967;-68
2023/11/05 11:11:07;;;;;;;2.30;1.20;;;;;;;;;;773409;179;817856;-65
2023/11/05 11:13:33;;;;;;;2.20;1.17;;;;;;;;;;778912;176;907400;-68
2023/11/05 11:16:01;;;;;;;2.37;1.10;;;;;;;;;;778376;179;921095;-64
2023/11/05 11:18:26;;;;;;;1.97;1.00;;;;;;;;;;772161;180;918700;-65
2023/11/05 11:20:52;;;;;;;2.00;0.90;;;;;;;;;;775041;179;942919;-67
2023/11/05 11:23:18;;;;;;;2.23;1.10;;;;;;;;;;779491;179;919745;-65
2023/11/05 11:25:49;;;;;;;2.20;1.10;;;;;;;;;;772151;178;918646;-67
2023/11/05 11:28:17;;;;;;;2.10;1.10;;;;;;;;;;772477;178;863319;-69
2023/11/05 11:30:41;;;;;;;2.70;1.30;;;;;;;;;;774210;179;914903;-68
2023/11/05 11:33:07;;;;;;;2.50;1.43;;;;;;;;;;783135;179;918115;-65
2023/11/05 11:35:33;;;;;;;2.40;1.30;;;;;;;;;;780902;178;914684;-68
2023/11/05 11:37:59;;;;;;;2.60;1.20;;;;;;;;;;777588;179;692807;-67
2023/11/05 11:40:24;;;;;;;3.27;1.47;;;;;;;;;;781602;179;749205;-68
2023/11/05 11:42:50;;;;;;;2.97;1.17;;;;;;;;;;769454;180;910859;-66
2023/11/05 11:45:16;;;;;;;2.10;1.23;;;;;;;;;;785102;178;627388;-66
2023/11/05 11:47:42;;;;;;;2.50;1.33;;;;;;;;;;782389;178;623549;-66
2023/11/05 11:50:09;;;;;;;2.57;1.30;;;;;;;;;;777256;178;718214;-65
2023/11/05 11:52:40;;;;;;;2.23;1.20;;;;;;;;;;773389;178;822286;-65
2023/11/05 11:55:06;;;;;;;2.07;1.00;;;;;;;;;;769479;178;917283;-69
2023/11/05 11:57:32;;;;;;;4.73;1.17;;;;;;;;;;776775;180;631980;-68
2023/11/05 11:59:58;;;;;;;2.70;1.30;;;;;;;;;;778958;178;641524;-68
2023/11/05 12:02:24;;;;;;;3.13;1.50;;;;;;;;;;779150;178;629144;-68
2023/11/05 12:04:51;;;;;;;2.70;1.47;;;;;;;;;;783569;179;871095;-69
2023/11/05 12:07:15;;;;;;;2.33;1.07;;;;;;;;;;778833;179;810760;-65
2023/11/05 12:09:41;;;;;;;2.60;1.47;;;;;;;;;;774309;179;817939;-69
2023/11/05 12:12:07;;;;;;;2.20;1.40;;;;;;;;;;777894;179;918297;-66
2023/11/05 12:14:33;;;;;;;2.63;1.40;;;;;;;;;;767933;180;918151;-64
2023/11/05 12:16:59;;;;;;;2.47;1.30;;;;;;;;;;779752;176;921639;-68
2023/11/05 12:19:26;;;;;;;2.43;1.47;;;;;;;;;;771666;179;918750;-68
2023/11/05 12:21:51;;;;;;;3.63;1.67;;;;;;;;;;777652;177;917963;-66
2023/11/05 12:24:16;;;;;;;2.30;1.37;;;;;;;;;;771326;179;915320;-68
2023/11/05 12:26:42;;;;;;;2.30;1.30;;;;;;;;;;773110;179;922287;-65
2023/11/05 12:29:09;;;;;;;4.00;1.67;;;;;;;;;;783617;179;816197;-66
2023/11/05 12:31:35;;;;;;;3.00;1.43;;;;;;;;;;777905;179;829344;-66
2023/11/05 12:34:01;;;;;;;3.40;1.45;;;;;;;;;;774322;179;920015;-65
2023/11/05 12:36:27;;;;;;;2.55;1.55;;;;;;;;;;779810;179;917961;-65
2023/11/05 12:38:53;;;;;;;2.50;1.40;;;;;;;;;;774066;180;919554;-67
2023/11/05 12:41:19;;;;;;;2.20;1.20;;;;;;;;;;780955;178;919224;-68
2023/11/05 12:43:45;;;;;;;2.30;1.10;;;;;;;;;;772322;179;891674;-68
2023/11/05 12:46:11;;;;;;;2.37;1.13;;;;;;;;;;776399;179;921181;-68
2023/11/05 12:48:37;;;;;;;2.17;1.20;;;;;;;;;;772546;178;915067;-67
2023/11/05 12:51:03;;;;;;;4.17;1.40;;;;;;;;;;775560;179;918311;-68
2023/11/05 12:53:29;;;;;;;2.75;1.27;;;;;;;;;;782933;176;919179;-65
2023/11/05 12:55:57;;;;;;;2.97;1.43;;;;;;;;;;778057;178;820494;-65
2023/11/05 12:58:23;;;;;;;3.07;1.40;;;;;;;;;;778327;179;816337;-67
2023/11/05 13:00:49;;;;;;;2.20;1.30;;;;;;;;;;776867;178;824089;-67
2023/11/05 13:03:15;;;;;;;3.47;1.10;;;;;;;;;;774060;180;811421;-67
2023/11/05 13:05:41;;;;;;;2.40;1.40;;;;;;;;;;777522;178;817530;-64
2023/11/05 13:08:09;;;;;;;2.70;1.50;;;;;;;;;;776896;178;933868;-64
2023/11/05 13:10:32;;;;;;;2.77;1.57;;;;;;;;;;782195;178;815122;-63
2023/11/05 13:12:58;;;;;;;2.80;1.67;;;;;;;;;;775800;178;917222;-67
2023/11/05 13:15:24;;;;;;;2.50;1.60;;;;;;;;;;777074;178;918581;-66
2023/11/05 13:17:50;;;;;;;3.00;1.60;;;;;;;;;;784844;179;623133;-65
2023/11/05 13:20:19;;;;;;;2.23;1.40;;;;;;;;;;779134;179;623863;-68
2023/11/05 13:22:42;;;;;;;2.80;1.37;;;;;;;;;;778614;176;629343;-64
2023/11/05 13:25:09;;;;;;;2.77;1.73;;;;;;;;;;783910;179;609049;-69
2023/11/05 13:27:33;;;;;;;2.50;1.40;;;;;;;;;;776925;179;623333;-69
2023/11/05 13:29:59;;;;;;;3.25;1.73;;;;;;;;;;777383;179;922599;-65
2023/11/05 13:32:25;;;;;;;2.30;1.53;;;;;;;;;;780723;175;919547;-67
2023/11/05 13:34:51;;;;;;;2.97;2.03;;;;;;;;;;780907;180;817139;-67
2023/11/05 13:37:19;;;;;;;2.70;1.73;;;;;;;;;;775736;179;917424;-64
2023/11/05 13:39:42;;;;;;;3.30;1.90;;;;;;;;;;775095;178;821131;-63
2023/11/05 13:42:09;;;;;;;2.70;1.55;;;;;;;;;;780132;179;874755;-65
2023/11/05 13:44:34;;;;;;;3.00;2.07;;;;;;;;;;775233;179;815865;-67
2023/11/05 13:47:00;;;;;;;5.17;1.80;;;;;;;;;;776066;179;916998;-67
2023/11/05 13:49:26;;;;;;;3.47;1.80;;;;;;;;;;782390;179;919447;-64
2023/11/05 13:51:52;;;;;;;3.93;1.87;;;;;;;;;;775487;179;920469;-66
2023/11/05 13:54:18;;;;;;;2.87;1.87;;;;;;;;;;775608;179;847715;-67
2023/11/05 13:56:43;;;;;;;3.13;1.77;;;;;;;;;;776983;179;815906;-67
2023/11/05 13:59:09;;;;;;;2.60;1.43;;;;;;;;;;768770;179;923723;-66
2023/11/05 14:01:35;;;;;;;3.93;1.73;;;;;;;;;;776683;178;920120;-67
2023/11/05 14:04:01;;;;;;;2.93;1.93;;;;;;;;;;776305;179;922811;-67
2023/11/05 14:06:27;;;;;;;4.30;2.30;;;;;;;;;;784740;178;919381;-67
2023/11/05 14:08:53;;;;;;;3.63;2.17;;;;;;;;;;783411;178;929356;-68
2023/11/05 14:11:19;;;;;;;3.20;2.53;;;;;;;;;;781665;178;713225;-65
2023/11/05 14:13:44;;;;;;;2.73;1.90;;;;;;;;;;783338;178;624128;-69
2023/11/05 14:16:10;;;;;;;3.50;2.57;;;;;;;;;;777757;178;662362;-65
2023/11/05 14:18:37;;;;;;;2.77;1.90;;;;;;;;;;778704;176;632240;-70
2023/11/05 14:21:02;;;;;;;4.10;2.43;;;;;;;;;;785130;178;625090;-67